sensor_id;sensor_type;location;lat;lon;timestamp;P1;durP1;ratioP1;P2;durP2;ratioP2
14400;SDS011;7285;50.894;5.462;2024-03-17T00:00:25;1.27;;;1.27;;
14400;SDS011;7285;50.894;5.462;2024-03-17T00:02:51;1.83;;;1.73;;
14400;SDS011;7285;50.894;5.462;2024-03-17T00:05:18;2.10;;;2.00;;
14400;SDS011;7285;50.894;5.462;2024-03-17T00:07:46;1.20;;;1.20;;
14400;SDS011;7285;50.894;5.462;2024-03-17T00:10:13;1.53;;;1.43;;
14400;SDS011;7285;50.894;5.462;2024-03-17T00:12:40;1.50;;;1.40;;
14400;SDS011;7285;50.894;5.462;2024-03-17T00:15:07;1.00;;;1.00;;
14400;SDS011;7285;50.894;5.462;2024-03-17T00:17:34;1.30;;;1.30;;
14400;SDS011;7285;50.894;5.462;2024-03-17T00:20:01;1.77;;;1.67;;
14400;SDS011;7285;50.894;5.462;2024-03-17T00:22:33;1.93;;;1.83;;
14400;SDS011;7285;50.894;5.462;2024-03-17T00:25:06;1.90;;;1.90;;
14400;SDS011;7285;50.894;5.462;2024-03-17T00:27:34;2.57;;;2.47;;
14400;SDS011;7285;50.894;5.462;2024-03-17T00:30:05;1.53;;;1.53;;
14400;SDS011;7285;50.894;5.462;2024-03-17T00:32:35;1.60;;;1.60;;
14400;SDS011;7285;50.894;5.462;2024-03-17T00:35:02;17.10;;;2.57;;
14400;SDS011;7285;50.894;5.462;2024-03-17T00:37:29;1.63;;;1.53;;
14400;SDS011;7285;50.894;5.462;2024-03-17T00:42:28;1.53;;;1.43;;
14400;SDS011;7285;50.894;5.462;2024-03-17T00:44:55;1.73;;;1.63;;
14400;SDS011;7285;50.894;5.462;2024-03-17T00:47:21;2.10;;;2.00;;
14400;SDS011;7285;50.894;5.462;2024-03-17T00:49:48;1.67;;;1.57;;
14400;SDS011;7285;50.894;5.462;2024-03-17T00:52:15;1.47;;;1.47;;
14400;SDS011;7285;50.894;5.462;2024-03-17T00:54:42;1.40;;;1.37;;
14400;SDS011;7285;50.894;5.462;2024-03-17T00:57:09;1.63;;;1.53;;
14400;SDS011;7285;50.894;5.462;2024-03-17T00:59:37;1.33;;;1.33;;
14400;SDS011;7285;50.894;5.462;2024-03-17T01:02:03;1.97;;;1.87;;
14400;SDS011;7285;50.894;5.462;2024-03-17T01:04:30;1.03;;;1.03;;
14400;SDS011;7285;50.894;5.462;2024-03-17T01:06:59;1.77;;;1.67;;
14400;SDS011;7285;50.894;5.462;2024-03-17T01:09:26;1.60;;;1.50;;
14400;SDS011;7285;50.894;5.462;2024-03-17T01:11:52;1.20;;;1.20;;
14400;SDS011;7285;50.894;5.462;2024-03-17T01:14:19;1.37;;;1.37;;
14400;SDS011;7285;50.894;5.462;2024-03-17T01:16:46;1.70;;;1.70;;
14400;SDS011;7285;50.894;5.462;2024-03-17T01:19:15;1.50;;;1.50;;
14400;SDS011;7285;50.894;5.462;2024-03-17T01:21:41;1.87;;;1.83;;
14400;SDS011;7285;50.894;5.462;2024-03-17T01:24:08;1.43;;;1.43;;
14400;SDS011;7285;50.894;5.462;2024-03-17T01:26:34;1.27;;;1.27;;
14400;SDS011;7285;50.894;5.462;2024-03-17T01:29:01;1.20;;;1.20;;
14400;SDS011;7285;50.894;5.462;2024-03-17T01:31:27;1.20;;;1.20;;
14400;SDS011;7285;50.894;5.462;2024-03-17T01:33:56;2.37;;;2.27;;
14400;SDS011;7285;50.894;5.462;2024-03-17T01:36:23;1.77;;;1.67;;
14400;SDS011;7285;50.894;5.462;2024-03-17T01:38:50;1.40;;;1.40;;
14400;SDS011;7285;50.894;5.462;2024-03-17T01:41:16;5.80;;;1.67;;
14400;SDS011;7285;50.894;5.462;2024-03-17T01:43:43;1.87;;;1.77;;
14400;SDS011;7285;50.894;5.462;2024-03-17T01:46:10;2.10;;;2.00;;
14400;SDS011;7285;50.894;5.462;2024-03-17T01:48:39;1.10;;;1.10;;
14400;SDS011;7285;50.894;5.462;2024-03-17T01:51:07;1.20;;;1.20;;
14400;SDS011;7285;50.894;5.462;2024-03-17T01:53:36;1.50;;;1.50;;
14400;SDS011;7285;50.894;5.462;2024-03-17T01:56:04;1.50;;;1.50;;
14400;SDS011;7285;50.894;5.462;2024-03-17T01:58:34;1.70;;;1.63;;
14400;SDS011;7285;50.894;5.462;2024-03-17T02:01:00;1.33;;;1.33;;
14400;SDS011;7285;50.894;5.462;2024-03-17T02:03:29;1.47;;;1.43;;
14400;SDS011;7285;50.894;5.462;2024-03-17T02:05:55;1.10;;;1.10;;
14400;SDS011;7285;50.894;5.462;2024-03-17T02:08:24;1.53;;;1.53;;
14400;SDS011;7285;50.894;5.462;2024-03-17T02:10:52;1.37;;;1.37;;
14400;SDS011;7285;50.894;5.462;2024-03-17T02:15:55;1.27;;;1.27;;
14400;SDS011;7285;50.894;5.462;2024-03-17T02:21:06;1.13;;;1.13;;
14400;SDS011;7285;50.894;5.462;2024-03-17T02:23:35;0.90;;;0.90;;
14400;SDS011;7285;50.894;5.462;2024-03-17T02:26:01;1.20;;;1.20;;
14400;SDS011;7285;50.894;5.462;2024-03-17T02:28:28;1.17;;;1.17;;
14400;SDS011;7285;50.894;5.462;2024-03-17T02:30:54;1.67;;;1.60;;
14400;SDS011;7285;50.894;5.462;2024-03-17T02:33:21;1.70;;;1.70;;
14400;SDS011;7285;50.894;5.462;2024-03-17T02:36:05;2.03;;;1.93;;
14400;SDS011;7285;50.894;5.462;2024-03-17T02:38:35;1.27;;;1.27;;
14400;SDS011;7285;50.894;5.462;2024-03-17T02:41:20;0.90;;;0.90;;
14400;SDS011;7285;50.894;5.462;2024-03-17T02:43:47;0.83;;;0.83;;
14400;SDS011;7285;50.894;5.462;2024-03-17T02:46:15;1.40;;;1.30;;
14400;SDS011;7285;50.894;5.462;2024-03-17T02:48:43;1.57;;;1.57;;
14400;SDS011;7285;50.894;5.462;2024-03-17T02:51:13;1.00;;;1.00;;
14400;SDS011;7285;50.894;5.462;2024-03-17T02:53:43;1.30;;;1.30;;
14400;SDS011;7285;50.894;5.462;2024-03-17T02:56:11;1.70;;;1.67;;
14400;SDS011;7285;50.894;5.462;2024-03-17T02:58:41;0.90;;;0.90;;
14400;SDS011;7285;50.894;5.462;2024-03-17T03:01:08;1.23;;;1.23;;
14400;SDS011;7285;50.894;5.462;2024-03-17T03:03:35;1.63;;;1.63;;
14400;SDS011;7285;50.894;5.462;2024-03-17T03:06:03;1.70;;;1.70;;
14400;SDS011;7285;50.894;5.462;2024-03-17T03:08:34;1.50;;;1.50;;
14400;SDS011;7285;50.894;5.462;2024-03-17T03:11:09;1.10;;;1.10;;
14400;SDS011;7285;50.894;5.462;2024-03-17T03:13:37;1.27;;;1.27;;
14400;SDS011;7285;50.894;5.462;2024-03-17T03:16:05;1.13;;;1.13;;
14400;SDS011;7285;50.894;5.462;2024-03-17T03:18:33;1.20;;;1.20;;
14400;SDS011;7285;50.894;5.462;2024-03-17T03:21:06;1.00;;;1.00;;
14400;SDS011;7285;50.894;5.462;2024-03-17T03:23:33;1.40;;;1.40;;
14400;SDS011;7285;50.894;5.462;2024-03-17T03:26:01;1.00;;;1.00;;
14400;SDS011;7285;50.894;5.462;2024-03-17T03:28:31;1.00;;;1.00;;
14400;SDS011;7285;50.894;5.462;2024-03-17T03:30:58;1.27;;;1.17;;
14400;SDS011;7285;50.894;5.462;2024-03-17T03:33:27;1.43;;;1.43;;
14400;SDS011;7285;50.894;5.462;2024-03-17T03:35:54;1.47;;;1.47;;
14400;SDS011;7285;50.894;5.462;2024-03-17T03:38:21;0.90;;;0.90;;
14400;SDS011;7285;50.894;5.462;2024-03-17T03:40:49;1.10;;;1.10;;
14400;SDS011;7285;50.894;5.462;2024-03-17T03:43:17;1.10;;;1.10;;
14400;SDS011;7285;50.894;5.462;2024-03-17T03:45:46;1.10;;;1.10;;
14400;SDS011;7285;50.894;5.462;2024-03-17T03:48:13;3.17;;;1.50;;
14400;SDS011;7285;50.894;5.462;2024-03-17T03:50:42;1.10;;;1.10;;
14400;SDS011;7285;50.894;5.462;2024-03-17T03:53:10;1.43;;;1.40;;
14400;SDS011;7285;50.894;5.462;2024-03-17T03:55:36;1.13;;;1.10;;
14400;SDS011;7285;50.894;5.462;2024-03-17T03:58:04;1.60;;;1.60;;
14400;SDS011;7285;50.894;5.462;2024-03-17T04:00:31;1.53;;;1.43;;
14400;SDS011;7285;50.894;5.462;2024-03-17T04:03:07;1.90;;;1.80;;
14400;SDS011;7285;50.894;5.462;2024-03-17T04:05:34;1.20;;;1.20;;
14400;SDS011;7285;50.894;5.462;2024-03-17T04:08:01;1.03;;;1.03;;
14400;SDS011;7285;50.894;5.462;2024-03-17T04:10:28;1.27;;;1.27;;
14400;SDS011;7285;50.894;5.462;2024-03-17T04:12:54;1.77;;;1.67;;
14400;SDS011;7285;50.894;5.462;2024-03-17T04:15:22;1.50;;;1.40;;
14400;SDS011;7285;50.894;5.462;2024-03-17T04:17:49;0.90;;;0.90;;
14400;SDS011;7285;50.894;5.462;2024-03-17T04:20:19;1.17;;;1.17;;
14400;SDS011;7285;50.894;5.462;2024-03-17T04:22:46;1.10;;;1.00;;
14400;SDS011;7285;50.894;5.462;2024-03-17T04:25:13;1.07;;;1.00;;
14400;SDS011;7285;50.894;5.462;2024-03-17T04:27:41;1.13;;;1.13;;
14400;SDS011;7285;50.894;5.462;2024-03-17T04:30:11;1.20;;;1.20;;
14400;SDS011;7285;50.894;5.462;2024-03-17T04:32:39;1.03;;;1.03;;
14400;SDS011;7285;50.894;5.462;2024-03-17T04:35:06;1.20;;;1.20;;
14400;SDS011;7285;50.894;5.462;2024-03-17T04:37:35;4.03;;;1.43;;
14400;SDS011;7285;50.894;5.462;2024-03-17T04:40:04;1.00;;;1.00;;
14400;SDS011;7285;50.894;5.462;2024-03-17T04:42:34;1.47;;;1.47;;
14400;SDS011;7285;50.894;5.462;2024-03-17T04:45:03;0.87;;;0.87;;
14400;SDS011;7285;50.894;5.462;2024-03-17T04:47:32;0.90;;;0.90;;
14400;SDS011;7285;50.894;5.462;2024-03-17T04:49:58;4.93;;;1.30;;
14400;SDS011;7285;50.894;5.462;2024-03-17T04:52:25;1.40;;;1.40;;
14400;SDS011;7285;50.894;5.462;2024-03-17T04:54:54;0.97;;;0.97;;
14400;SDS011;7285;50.894;5.462;2024-03-17T04:57:21;1.00;;;1.00;;
14400;SDS011;7285;50.894;5.462;2024-03-17T04:59:48;0.97;;;0.97;;
14400;SDS011;7285;50.894;5.462;2024-03-17T05:02:15;1.10;;;1.10;;
14400;SDS011;7285;50.894;5.462;2024-03-17T05:04:42;1.20;;;1.10;;
14400;SDS011;7285;50.894;5.462;2024-03-17T05:09:39;1.37;;;1.37;;
14400;SDS011;7285;50.894;5.462;2024-03-17T05:12:07;1.33;;;1.33;;
14400;SDS011;7285;50.894;5.462;2024-03-17T05:14:34;1.10;;;1.10;;
14400;SDS011;7285;50.894;5.462;2024-03-17T05:17:02;0.93;;;0.93;;
14400;SDS011;7285;50.894;5.462;2024-03-17T05:19:29;1.10;;;1.10;;
14400;SDS011;7285;50.894;5.462;2024-03-17T05:21:56;1.27;;;1.27;;
14400;SDS011;7285;50.894;5.462;2024-03-17T05:24:29;0.93;;;0.93;;
14400;SDS011;7285;50.894;5.462;2024-03-17T05:26:56;1.00;;;1.00;;
14400;SDS011;7285;50.894;5.462;2024-03-17T05:29:25;1.20;;;1.20;;
14400;SDS011;7285;50.894;5.462;2024-03-17T05:31:52;1.63;;;1.63;;
14400;SDS011;7285;50.894;5.462;2024-03-17T05:34:19;1.87;;;1.77;;
14400;SDS011;7285;50.894;5.462;2024-03-17T05:36:46;1.30;;;1.30;;
14400;SDS011;7285;50.894;5.462;2024-03-17T05:39:13;1.30;;;1.30;;
14400;SDS011;7285;50.894;5.462;2024-03-17T05:41:40;1.47;;;1.37;;
14400;SDS011;7285;50.894;5.462;2024-03-17T05:44:08;1.40;;;1.40;;
14400;SDS011;7285;50.894;5.462;2024-03-17T05:46:37;0.90;;;0.90;;
14400;SDS011;7285;50.894;5.462;2024-03-17T05:49:04;1.30;;;1.30;;
14400;SDS011;7285;50.894;5.462;2024-03-17T05:51:31;0.90;;;0.90;;
14400;SDS011;7285;50.894;5.462;2024-03-17T05:53:59;0.90;;;0.90;;
14400;SDS011;7285;50.894;5.462;2024-03-17T05:56:26;1.63;;;1.63;;
14400;SDS011;7285;50.894;5.462;2024-03-17T05:58:53;1.40;;;1.40;;
14400;SDS011;7285;50.894;5.462;2024-03-17T06:01:26;1.10;;;1.10;;
14400;SDS011;7285;50.894;5.462;2024-03-17T06:03:54;1.00;;;1.00;;
14400;SDS011;7285;50.894;5.462;2024-03-17T06:09:00;1.00;;;1.00;;
14400;SDS011;7285;50.894;5.462;2024-03-17T06:11:29;0.87;;;0.87;;
14400;SDS011;7285;50.894;5.462;2024-03-17T06:13:59;1.20;;;1.20;;
14400;SDS011;7285;50.894;5.462;2024-03-17T06:16:31;1.20;;;1.20;;
14400;SDS011;7285;50.894;5.462;2024-03-17T06:19:00;1.37;;;1.37;;
14400;SDS011;7285;50.894;5.462;2024-03-17T06:21:28;0.93;;;0.93;;
14400;SDS011;7285;50.894;5.462;2024-03-17T06:23:55;1.17;;;1.17;;
14400;SDS011;7285;50.894;5.462;2024-03-17T06:26:22;1.30;;;1.30;;
14400;SDS011;7285;50.894;5.462;2024-03-17T06:30:44;1.77;;;1.67;;
14400;SDS011;7285;50.894;5.462;2024-03-17T06:33:12;0.90;;;0.90;;
14400;SDS011;7285;50.894;5.462;2024-03-17T06:35:39;0.97;;;0.97;;
14400;SDS011;7285;50.894;5.462;2024-03-17T06:38:06;0.90;;;0.90;;
14400;SDS011;7285;50.894;5.462;2024-03-17T06:40:35;1.43;;;1.43;;
14400;SDS011;7285;50.894;5.462;2024-03-17T06:43:02;1.43;;;1.33;;
14400;SDS011;7285;50.894;5.462;2024-03-17T06:45:29;1.10;;;1.10;;
14400;SDS011;7285;50.894;5.462;2024-03-17T06:47:57;1.50;;;1.50;;
14400;SDS011;7285;50.894;5.462;2024-03-17T06:50:24;0.90;;;0.90;;
14400;SDS011;7285;50.894;5.462;2024-03-17T06:52:51;1.00;;;1.00;;
14400;SDS011;7285;50.894;5.462;2024-03-17T06:55:18;0.90;;;0.90;;
14400;SDS011;7285;50.894;5.462;2024-03-17T06:57:46;1.00;;;1.00;;
14400;SDS011;7285;50.894;5.462;2024-03-17T07:00:13;1.47;;;1.47;;
14400;SDS011;7285;50.894;5.462;2024-03-17T07:02:42;1.10;;;1.10;;
14400;SDS011;7285;50.894;5.462;2024-03-17T07:05:14;0.93;;;0.93;;
14400;SDS011;7285;50.894;5.462;2024-03-17T07:07:41;1.50;;;1.47;;
14400;SDS011;7285;50.894;5.462;2024-03-17T07:10:08;1.00;;;1.00;;
14400;SDS011;7285;50.894;5.462;2024-03-17T07:12:36;1.00;;;1.00;;
14400;SDS011;7285;50.894;5.462;2024-03-17T07:15:03;0.97;;;0.97;;
14400;SDS011;7285;50.894;5.462;2024-03-17T07:17:32;1.60;;;1.60;;
14400;SDS011;7285;50.894;5.462;2024-03-17T07:19:59;1.17;;;1.17;;
14400;SDS011;7285;50.894;5.462;2024-03-17T07:22:27;1.97;;;1.87;;
14400;SDS011;7285;50.894;5.462;2024-03-17T07:24:54;1.07;;;1.07;;
14400;SDS011;7285;50.894;5.462;2024-03-17T07:27:25;1.63;;;1.53;;
14400;SDS011;7285;50.894;5.462;2024-03-17T07:29:52;1.30;;;1.30;;
14400;SDS011;7285;50.894;5.462;2024-03-17T07:32:19;1.30;;;1.30;;
14400;SDS011;7285;50.894;5.462;2024-03-17T07:34:46;1.00;;;1.00;;
14400;SDS011;7285;50.894;5.462;2024-03-17T07:37:14;1.00;;;1.00;;
14400;SDS011;7285;50.894;5.462;2024-03-17T07:39:42;1.00;;;1.00;;
14400;SDS011;7285;50.894;5.462;2024-03-17T07:42:09;1.10;;;1.10;;
14400;SDS011;7285;50.894;5.462;2024-03-17T07:44:38;1.00;;;1.00;;
14400;SDS011;7285;50.894;5.462;2024-03-17T07:47:05;0.90;;;0.90;;
14400;SDS011;7285;50.894;5.462;2024-03-17T07:49:32;1.70;;;1.63;;
14400;SDS011;7285;50.894;5.462;2024-03-17T07:51:59;1.20;;;1.20;;
14400;SDS011;7285;50.894;5.462;2024-03-17T07:54:27;0.97;;;0.97;;
14400;SDS011;7285;50.894;5.462;2024-03-17T07:56:55;1.30;;;1.30;;
14400;SDS011;7285;50.894;5.462;2024-03-17T07:59:22;1.30;;;1.30;;
14400;SDS011;7285;50.894;5.462;2024-03-17T08:01:49;1.10;;;1.10;;
14400;SDS011;7285;50.894;5.462;2024-03-17T08:04:16;1.63;;;1.53;;
14400;SDS011;7285;50.894;5.462;2024-03-17T08:06:43;0.90;;;0.90;;
14400;SDS011;7285;50.894;5.462;2024-03-17T08:09:10;1.20;;;1.20;;
14400;SDS011;7285;50.894;5.462;2024-03-17T08:11:37;1.00;;;1.00;;
14400;SDS011;7285;50.894;5.462;2024-03-17T08:14:10;1.97;;;1.87;;
14400;SDS011;7285;50.894;5.462;2024-03-17T08:16:36;0.90;;;0.90;;
14400;SDS011;7285;50.894;5.462;2024-03-17T08:19:04;1.33;;;1.33;;
14400;SDS011;7285;50.894;5.462;2024-03-17T08:21:32;1.00;;;1.00;;
14400;SDS011;7285;50.894;5.462;2024-03-17T08:23:57;1.20;;;1.20;;
14400;SDS011;7285;50.894;5.462;2024-03-17T08:26:24;0.80;;;0.80;;
14400;SDS011;7285;50.894;5.462;2024-03-17T08:28:51;1.33;;;1.33;;
14400;SDS011;7285;50.894;5.462;2024-03-17T08:31:19;1.20;;;1.20;;
14400;SDS011;7285;50.894;5.462;2024-03-17T08:33:46;1.10;;;1.10;;
14400;SDS011;7285;50.894;5.462;2024-03-17T08:36:16;0.77;;;0.77;;
14400;SDS011;7285;50.894;5.462;2024-03-17T08:38:45;0.70;;;0.70;;
14400;SDS011;7285;50.894;5.462;2024-03-17T08:41:12;0.90;;;0.90;;
14400;SDS011;7285;50.894;5.462;2024-03-17T08:43:40;0.70;;;0.70;;
14400;SDS011;7285;50.894;5.462;2024-03-17T08:46:08;0.80;;;0.80;;
14400;SDS011;7285;50.894;5.462;2024-03-17T08:48:37;1.00;;;1.00;;
14400;SDS011;7285;50.894;5.462;2024-03-17T08:51:05;0.97;;;0.97;;
14400;SDS011;7285;50.894;5.462;2024-03-17T08:53:33;0.97;;;0.97;;
14400;SDS011;7285;50.894;5.462;2024-03-17T08:56:00;1.00;;;1.00;;
14400;SDS011;7285;50.894;5.462;2024-03-17T08:58:31;1.20;;;1.20;;
14400;SDS011;7285;50.894;5.462;2024-03-17T09:00:58;0.67;;;0.67;;
14400;SDS011;7285;50.894;5.462;2024-03-17T09:03:28;0.70;;;0.70;;
14400;SDS011;7285;50.894;5.462;2024-03-17T09:05:57;1.00;;;1.00;;
14400;SDS011;7285;50.894;5.462;2024-03-17T09:08:24;1.33;;;1.33;;
14400;SDS011;7285;50.894;5.462;2024-03-17T09:10:53;0.93;;;0.93;;
14400;SDS011;7285;50.894;5.462;2024-03-17T09:13:20;1.50;;;1.40;;
14400;SDS011;7285;50.894;5.462;2024-03-17T09:15:50;1.33;;;1.33;;
14400;SDS011;7285;50.894;5.462;2024-03-17T09:18:17;1.23;;;1.23;;
14400;SDS011;7285;50.894;5.462;2024-03-17T09:20:44;1.43;;;1.33;;
14400;SDS011;7285;50.894;5.462;2024-03-17T09:23:13;0.93;;;0.93;;
14400;SDS011;7285;50.894;5.462;2024-03-17T09:25:40;0.60;;;0.60;;
14400;SDS011;7285;50.894;5.462;2024-03-17T09:28:07;0.77;;;0.77;;
14400;SDS011;7285;50.894;5.462;2024-03-17T09:30:34;1.33;;;1.23;;
14400;SDS011;7285;50.894;5.462;2024-03-17T09:33:00;1.40;;;1.30;;
14400;SDS011;7285;50.894;5.462;2024-03-17T09:35:29;0.87;;;0.87;;
14400;SDS011;7285;50.894;5.462;2024-03-17T09:37:56;0.60;;;0.60;;
14400;SDS011;7285;50.894;5.462;2024-03-17T09:40:24;1.83;;;1.73;;
14400;SDS011;7285;50.894;5.462;2024-03-17T09:42:51;1.37;;;1.37;;
14400;SDS011;7285;50.894;5.462;2024-03-17T09:45:18;0.70;;;0.70;;
14400;SDS011;7285;50.894;5.462;2024-03-17T09:47:47;0.77;;;0.77;;
14400;SDS011;7285;50.894;5.462;2024-03-17T09:50:14;1.00;;;1.00;;
14400;SDS011;7285;50.894;5.462;2024-03-17T09:52:42;1.13;;;1.10;;
14400;SDS011;7285;50.894;5.462;2024-03-17T09:55:13;1.47;;;1.20;;
14400;SDS011;7285;50.894;5.462;2024-03-17T09:57:44;1.23;;;1.10;;
14400;SDS011;7285;50.894;5.462;2024-03-17T10:00:13;2.60;;;1.20;;
14400;SDS011;7285;50.894;5.462;2024-03-17T10:02:44;1.27;;;1.17;;
14400;SDS011;7285;50.894;5.462;2024-03-17T10:05:18;0.70;;;0.70;;
14400;SDS011;7285;50.894;5.462;2024-03-17T10:07:46;0.70;;;0.70;;
14400;SDS011;7285;50.894;5.462;2024-03-17T10:10:13;1.00;;;1.00;;
14400;SDS011;7285;50.894;5.462;2024-03-17T10:12:41;0.87;;;0.77;;
14400;SDS011;7285;50.894;5.462;2024-03-17T10:15:10;0.67;;;0.67;;
14400;SDS011;7285;50.894;5.462;2024-03-17T10:17:37;3.20;;;0.80;;
14400;SDS011;7285;50.894;5.462;2024-03-17T10:20:11;0.50;;;0.50;;
14400;SDS011;7285;50.894;5.462;2024-03-17T10:22:40;0.67;;;0.67;;
14400;SDS011;7285;50.894;5.462;2024-03-17T10:25:23;6.97;;;1.10;;
14400;SDS011;7285;50.894;5.462;2024-03-17T10:27:52;0.90;;;0.90;;
14400;SDS011;7285;50.894;5.462;2024-03-17T10:30:19;0.70;;;0.70;;
14400;SDS011;7285;50.894;5.462;2024-03-17T10:32:51;1.17;;;1.17;;
14400;SDS011;7285;50.894;5.462;2024-03-17T10:35:26;0.53;;;0.53;;
14400;SDS011;7285;50.894;5.462;2024-03-17T10:37:57;0.50;;;0.50;;
14400;SDS011;7285;50.894;5.462;2024-03-17T10:40:25;0.50;;;0.50;;
14400;SDS011;7285;50.894;5.462;2024-03-17T10:42:56;0.50;;;0.50;;
14400;SDS011;7285;50.894;5.462;2024-03-17T10:45:25;0.60;;;0.60;;
14400;SDS011;7285;50.894;5.462;2024-03-17T10:47:55;0.57;;;0.57;;
14400;SDS011;7285;50.894;5.462;2024-03-17T10:50:25;0.40;;;0.40;;
14400;SDS011;7285;50.894;5.462;2024-03-17T10:52:58;0.70;;;0.70;;
14400;SDS011;7285;50.894;5.462;2024-03-17T10:55:31;0.80;;;0.80;;
14400;SDS011;7285;50.894;5.462;2024-03-17T10:58:06;0.80;;;0.80;;
14400;SDS011;7285;50.894;5.462;2024-03-17T11:00:46;0.60;;;0.60;;
14400;SDS011;7285;50.894;5.462;2024-03-17T11:03:13;0.70;;;0.70;;
14400;SDS011;7285;50.894;5.462;2024-03-17T11:05:41;0.90;;;0.90;;
14400;SDS011;7285;50.894;5.462;2024-03-17T11:08:09;0.63;;;0.63;;
14400;SDS011;7285;50.894;5.462;2024-03-17T11:10:48;0.70;;;0.70;;
14400;SDS011;7285;50.894;5.462;2024-03-17T11:13:26;0.70;;;0.70;;
14400;SDS011;7285;50.894;5.462;2024-03-17T11:15:53;0.80;;;0.80;;
14400;SDS011;7285;50.894;5.462;2024-03-17T11:21:19;0.60;;;0.60;;
14400;SDS011;7285;50.894;5.462;2024-03-17T11:24:00;0.80;;;0.80;;
14400;SDS011;7285;50.894;5.462;2024-03-17T11:26:32;0.67;;;0.67;;
14400;SDS011;7285;50.894;5.462;2024-03-17T11:29:01;0.60;;;0.60;;
14400;SDS011;7285;50.894;5.462;2024-03-17T11:31:36;0.60;;;0.60;;
14400;SDS011;7285;50.894;5.462;2024-03-17T11:34:07;0.70;;;0.70;;
14400;SDS011;7285;50.894;5.462;2024-03-17T11:36:56;1.33;;;0.90;;
14400;SDS011;7285;50.894;5.462;2024-03-17T11:42:16;0.90;;;0.90;;
14400;SDS011;7285;50.894;5.462;2024-03-17T11:44:44;0.70;;;0.70;;
14400;SDS011;7285;50.894;5.462;2024-03-17T11:47:21;0.70;;;0.70;;
14400;SDS011;7285;50.894;5.462;2024-03-17T11:49:47;0.60;;;0.60;;
14400;SDS011;7285;50.894;5.462;2024-03-17T11:52:16;0.70;;;0.70;;
14400;SDS011;7285;50.894;5.462;2024-03-17T11:54:43;0.67;;;0.67;;
14400;SDS011;7285;50.894;5.462;2024-03-17T11:57:11;0.83;;;0.83;;
14400;SDS011;7285;50.894;5.462;2024-03-17T11:59:39;0.70;;;0.70;;
14400;SDS011;7285;50.894;5.462;2024-03-17T12:02:13;0.60;;;0.60;;
14400;SDS011;7285;50.894;5.462;2024-03-17T12:04:44;0.50;;;0.50;;
14400;SDS011;7285;50.894;5.462;2024-03-17T12:07:11;0.63;;;0.63;;
14400;SDS011;7285;50.894;5.462;2024-03-17T12:09:40;0.70;;;0.70;;
14400;SDS011;7285;50.894;5.462;2024-03-17T12:12:08;2.33;;;0.53;;
14400;SDS011;7285;50.894;5.462;2024-03-17T12:14:35;0.53;;;0.53;;
14400;SDS011;7285;50.894;5.462;2024-03-17T12:17:03;0.43;;;0.43;;
14400;SDS011;7285;50.894;5.462;2024-03-17T12:19:31;0.70;;;0.60;;
14400;SDS011;7285;50.894;5.462;2024-03-17T12:21:58;0.50;;;0.50;;
14400;SDS011;7285;50.894;5.462;2024-03-17T12:24:26;0.60;;;0.60;;
14400;SDS011;7285;50.894;5.462;2024-03-17T12:26:54;0.70;;;0.70;;
14400;SDS011;7285;50.894;5.462;2024-03-17T12:29:25;0.50;;;0.50;;
14400;SDS011;7285;50.894;5.462;2024-03-17T12:31:55;0.60;;;0.60;;
14400;SDS011;7285;50.894;5.462;2024-03-17T12:34:23;0.50;;;0.50;;
14400;SDS011;7285;50.894;5.462;2024-03-17T12:36:54;0.60;;;0.60;;
14400;SDS011;7285;50.894;5.462;2024-03-17T12:39:21;0.97;;;0.97;;
14400;SDS011;7285;50.894;5.462;2024-03-17T12:42:05;0.50;;;0.50;;
14400;SDS011;7285;50.894;5.462;2024-03-17T12:44:33;0.70;;;0.70;;
14400;SDS011;7285;50.894;5.462;2024-03-17T12:47:02;0.73;;;0.73;;
14400;SDS011;7285;50.894;5.462;2024-03-17T12:49:30;1.10;;;1.00;;
14400;SDS011;7285;50.894;5.462;2024-03-17T12:51:59;0.90;;;0.90;;
14400;SDS011;7285;50.894;5.462;2024-03-17T12:54:26;0.60;;;0.60;;
14400;SDS011;7285;50.894;5.462;2024-03-17T12:57:03;0.60;;;0.60;;
14400;SDS011;7285;50.894;5.462;2024-03-17T12:59:48;0.50;;;0.50;;
14400;SDS011;7285;50.894;5.462;2024-03-17T13:02:35;0.77;;;0.73;;
14400;SDS011;7285;50.894;5.462;2024-03-17T13:05:10;6.43;;;0.97;;
14400;SDS011;7285;50.894;5.462;2024-03-17T13:07:41;0.83;;;0.83;;
14400;SDS011;7285;50.894;5.462;2024-03-17T13:10:13;0.60;;;0.60;;
14400;SDS011;7285;50.894;5.462;2024-03-17T13:12:41;0.93;;;0.90;;
14400;SDS011;7285;50.894;5.462;2024-03-17T13:15:09;0.63;;;0.63;;
14400;SDS011;7285;50.894;5.462;2024-03-17T13:17:38;0.50;;;0.50;;
14400;SDS011;7285;50.894;5.462;2024-03-17T13:20:05;0.53;;;0.53;;
14400;SDS011;7285;50.894;5.462;2024-03-17T13:22:36;0.77;;;0.77;;
14400;SDS011;7285;50.894;5.462;2024-03-17T13:25:07;0.50;;;0.50;;
14400;SDS011;7285;50.894;5.462;2024-03-17T13:27:38;0.50;;;0.50;;
14400;SDS011;7285;50.894;5.462;2024-03-17T13:30:06;0.63;;;0.63;;
14400;SDS011;7285;50.894;5.462;2024-03-17T13:32:34;0.80;;;0.80;;
14400;SDS011;7285;50.894;5.462;2024-03-17T13:35:01;0.47;;;0.47;;
14400;SDS011;7285;50.894;5.462;2024-03-17T13:37:28;0.73;;;0.73;;
14400;SDS011;7285;50.894;5.462;2024-03-17T13:39:55;0.33;;;0.33;;
14400;SDS011;7285;50.894;5.462;2024-03-17T13:42:23;0.70;;;0.70;;
14400;SDS011;7285;50.894;5.462;2024-03-17T13:44:50;0.60;;;0.60;;
14400;SDS011;7285;50.894;5.462;2024-03-17T13:47:17;0.40;;;0.40;;
14400;SDS011;7285;50.894;5.462;2024-03-17T13:49:44;0.40;;;0.40;;
14400;SDS011;7285;50.894;5.462;2024-03-17T13:52:11;0.50;;;0.50;;
14400;SDS011;7285;50.894;5.462;2024-03-17T13:54:38;0.60;;;0.60;;
14400;SDS011;7285;50.894;5.462;2024-03-17T13:57:05;0.50;;;0.50;;
14400;SDS011;7285;50.894;5.462;2024-03-17T13:59:35;0.70;;;0.70;;
14400;SDS011;7285;50.894;5.462;2024-03-17T14:02:01;0.83;;;0.83;;
14400;SDS011;7285;50.894;5.462;2024-03-17T14:04:29;0.73;;;0.73;;
14400;SDS011;7285;50.894;5.462;2024-03-17T14:06:56;0.50;;;0.50;;
14400;SDS011;7285;50.894;5.462;2024-03-17T14:09:23;0.50;;;0.50;;
14400;SDS011;7285;50.894;5.462;2024-03-17T14:11:50;1.40;;;0.60;;
14400;SDS011;7285;50.894;5.462;2024-03-17T14:14:18;0.43;;;0.43;;
14400;SDS011;7285;50.894;5.462;2024-03-17T14:16:46;0.60;;;0.60;;
14400;SDS011;7285;50.894;5.462;2024-03-17T14:19:12;0.50;;;0.50;;
14400;SDS011;7285;50.894;5.462;2024-03-17T14:21:39;1.10;;;1.10;;
14400;SDS011;7285;50.894;5.462;2024-03-17T14:24:06;0.60;;;0.60;;
14400;SDS011;7285;50.894;5.462;2024-03-17T14:26:34;0.40;;;0.40;;
14400;SDS011;7285;50.894;5.462;2024-03-17T14:29:01;4.93;;;0.50;;
14400;SDS011;7285;50.894;5.462;2024-03-17T14:31:31;0.50;;;0.50;;
14400;SDS011;7285;50.894;5.462;2024-03-17T14:34:02;3.90;;;0.93;;
14400;SDS011;7285;50.894;5.462;2024-03-17T14:36:30;0.90;;;0.90;;
14400;SDS011;7285;50.894;5.462;2024-03-17T14:38:58;0.40;;;0.40;;
14400;SDS011;7285;50.894;5.462;2024-03-17T14:41:27;0.63;;;0.63;;
14400;SDS011;7285;50.894;5.462;2024-03-17T14:43:54;0.50;;;0.50;;
14400;SDS011;7285;50.894;5.462;2024-03-17T14:46:22;0.80;;;0.80;;
14400;SDS011;7285;50.894;5.462;2024-03-17T14:48:49;0.40;;;0.40;;
14400;SDS011;7285;50.894;5.462;2024-03-17T14:51:17;0.50;;;0.50;;
14400;SDS011;7285;50.894;5.462;2024-03-17T14:53:46;0.57;;;0.57;;
14400;SDS011;7285;50.894;5.462;2024-03-17T14:56:14;0.50;;;0.50;;
14400;SDS011;7285;50.894;5.462;2024-03-17T14:58:42;0.83;;;0.73;;
14400;SDS011;7285;50.894;5.462;2024-03-17T15:01:09;0.40;;;0.40;;
14400;SDS011;7285;50.894;5.462;2024-03-17T15:03:36;1.00;;;1.00;;
14400;SDS011;7285;50.894;5.462;2024-03-17T15:06:04;0.50;;;0.50;;
14400;SDS011;7285;50.894;5.462;2024-03-17T15:08:37;0.87;;;0.87;;
14400;SDS011;7285;50.894;5.462;2024-03-17T15:11:04;0.43;;;0.43;;
14400;SDS011;7285;50.894;5.462;2024-03-17T15:13:32;0.40;;;0.40;;
14400;SDS011;7285;50.894;5.462;2024-03-17T15:16:00;0.50;;;0.50;;
14400;SDS011;7285;50.894;5.462;2024-03-17T15:18:29;0.77;;;0.50;;
14400;SDS011;7285;50.894;5.462;2024-03-17T15:20:56;0.47;;;0.47;;
14400;SDS011;7285;50.894;5.462;2024-03-17T15:23:25;0.40;;;0.40;;
14400;SDS011;7285;50.894;5.462;2024-03-17T15:26:00;0.87;;;0.83;;
14400;SDS011;7285;50.894;5.462;2024-03-17T15:28:31;0.60;;;0.60;;